Time;durP1;ratioP1;P1;durP2;ratioP2;P2;SDS_P1;SDS_P2;PMS_P1;PMS_P2;Temp;Humidity;BMP_temperature;BMP_pressure;BME280_temperature;BME280_humidity;BME280_pressure;Samples;Min_cycle;Max_cycle;Signal;HPM_P1;HPM_P2
2022/06/28 00:01:57;;;;;;;2.85;1.80;;;;;;;17.44;71.42;100895.31;4922177;29;21009;-70
2022/06/28 00:04:24;;;;;;;3.88;2.00;;;;;;;17.51;70.92;100909.13;4935274;28;20084;-71
2022/06/28 00:06:51;;;;;;;2.38;1.90;;;;;;;17.42;71.88;100917.78;4933090;28;20074;-71
2022/06/28 00:09:17;;;;;;;2.90;1.52;;;;;;;17.35;71.96;100921.81;4917833;29;20079;-71
2022/06/28 00:11:44;;;;;;;3.15;1.50;;;;;;;17.18;72.02;100914.91;4928320;28;20433;-71
2022/06/28 00:16:58;;;;;;;3.90;1.65;;;;;;;17.13;72.95;100927.75;4921742;29;20044;-70
2022/06/28 00:19:24;;;;;;;2.40;1.52;;;;;;;17.08;73.02;100922.69;4935728;28;20062;-71
2022/06/28 00:21:51;;;;;;;1.90;1.70;;;;;;;17.11;73.28;100927.84;4932977;28;20066;-71
2022/06/28 00:24:18;;;;;;;3.95;1.55;;;;;;;17.13;73.36;100919.72;4924539;28;20075;-71
2022/06/28 00:26:46;;;;;;;3.22;1.70;;;;;;;17.08;73.72;100913.81;4929204;28;20074;-70
2022/06/28 00:29:13;;;;;;;2.05;1.80;;;;;;;17.06;74.23;100919.25;4932063;28;20051;-71
2022/06/28 00:31:42;;;;;;;1.50;1.40;;;;;;;17.03;73.30;100907.88;4925154;28;20056;-71
2022/06/28 00:34:10;;;;;;;3.20;1.90;;;;;;;17.00;72.22;100897.41;4934027;28;20110;-71
2022/06/28 00:36:36;;;;;;;2.00;1.60;;;;;;;17.10;72.79;100934.16;4935052;28;20143;-72
2022/06/28 00:39:03;;;;;;;4.47;1.58;;;;;;;17.12;72.39;100932.25;4924478;28;20087;-71
2022/06/28 00:41:30;;;;;;;2.65;1.80;;;;;;;17.12;72.20;100942.94;4928455;29;20469;-70
2022/06/28 00:43:58;;;;;;;1.90;1.50;;;;;;;17.11;72.23;100945.72;4932606;28;20071;-71
2022/06/28 00:46:29;;;;;;;3.78;1.83;;;;;;;17.03;72.43;100950.69;4934742;28;20412;-72
2022/06/28 00:48:56;;;;;;;3.38;1.83;;;;;;;16.96;72.83;100946.72;4933875;28;20050;-71
2022/06/28 00:51:24;;;;;;;3.17;1.65;;;;;;;16.84;73.27;100946.53;4927318;28;20052;-70
2022/06/28 00:53:53;;;;;;;1.95;1.70;;;;;;;16.80;73.45;100952.19;4923529;28;20047;-71
2022/06/28 00:56:20;;;;;;;3.38;2.08;;;;;;;16.73;73.59;100966.91;4924171;29;20445;-70
2022/06/28 00:58:47;;;;;;;2.28;1.90;;;;;;;16.68;74.13;100969.88;4926192;28;20054;-70
2022/06/28 01:01:17;;;;;;;2.53;2.00;;;;;;;16.56;75.03;100951.88;4925947;28;20083;-70
2022/06/28 01:03:44;;;;;;;2.15;1.90;;;;;;;16.53;74.56;100941.38;4927013;28;20048;-70
2022/06/28 01:06:11;;;;;;;3.13;1.98;;;;;;;16.68;73.87;100969.03;4925721;28;20056;-70
2022/06/28 01:08:38;;;;;;;2.10;1.85;;;;;;;16.63;74.07;100957.75;4929089;28;20111;-70
2022/06/28 01:11:20;;;;;;;3.22;1.90;;;;;;;16.70;74.05;100973.28;4921618;28;20484;-70
2022/06/28 01:13:53;;;;;;;3.65;1.85;;;;;;;16.67;74.20;100976.19;4927335;28;20200;-71
2022/06/28 01:16:21;;;;;;;4.03;2.45;;;;;;;16.61;74.53;100976.53;4926056;29;20056;-71
2022/06/28 01:18:48;;;;;;;3.90;2.35;;;;;;;16.56;75.57;100978.63;4931593;28;20544;-72
2022/06/28 01:21:16;;;;;;;2.72;1.85;;;;;;;16.46;75.98;100977.47;4931718;28;20075;-70
2022/06/28 01:23:45;;;;;;;2.33;2.13;;;;;;;16.36;76.53;100974.53;4927363;28;20143;-72
2022/06/28 01:26:15;;;;;;;;;;;;;;;16.33;77.05;100976.53;4921986;28;20094;-70
2022/06/28 01:28:42;;;;;;;4.85;3.45;;;;;;;15.94;77.80;100913.88;4930288;28;19946;-70
2022/06/28 01:31:10;;;;;;;5.38;3.47;;;;;;;16.14;78.10;100955.41;4923972;28;20052;-71
2022/06/28 01:33:38;;;;;;;6.07;3.40;;;;;;;16.23;78.98;100970.00;4927991;28;20654;-71
2022/06/28 01:36:06;;;;;;;4.15;3.70;;;;;;;16.21;79.22;100969.28;4936712;28;20389;-71
2022/06/28 01:38:33;;;;;;;5.82;4.03;;;;;;;16.23;79.45;100976.22;4925243;28;20111;-70
2022/06/28 01:41:01;;;;;;;5.15;4.10;;;;;;;16.19;79.50;100984.53;4927195;28;20056;-70
2022/06/28 01:43:30;;;;;;;4.65;4.10;;;;;;;16.17;80.80;100983.75;4925904;29;20166;-71
2022/06/28 01:45:58;;;;;;;4.65;4.05;;;;;;;16.18;80.17;100975.66;4926054;29;20051;-71
2022/06/28 01:48:25;;;;;;;5.25;3.97;;;;;;;16.16;80.41;100971.34;4920254;28;20047;-71
2022/06/28 01:50:54;;;;;;;5.60;4.10;;;;;;;16.09;80.66;100963.69;4937314;28;20118;-69
2022/06/28 01:53:21;;;;;;;7.30;4.85;;;;;;;16.00;80.75;100966.09;4923905;28;20058;-73
2022/06/28 01:55:48;;;;;;;5.07;4.57;;;;;;;16.01;81.67;100967.81;4931085;28;20059;-71
2022/06/28 01:58:16;;;;;;;6.00;4.60;;;;;;;15.93;81.61;100973.59;4929710;28;20055;-72
2022/06/28 02:00:43;;;;;;;7.13;5.32;;;;;;;15.85;82.16;100972.34;4931326;28;20114;-71
2022/06/28 02:03:10;;;;;;;7.00;4.60;;;;;;;15.72;82.56;100953.53;4931557;28;20059;-71
2022/06/28 02:05:37;;;;;;;7.90;5.25;;;;;;;15.64;83.31;100953.09;4937170;28;21283;-71
2022/06/28 02:08:04;;;;;;;6.13;5.47;;;;;;;15.76;83.65;100979.94;4930038;28;20134;-72
2022/06/28 02:10:30;;;;;;;8.63;5.60;;;;;;;15.71;84.21;100970.50;4925400;28;20062;-71
2022/06/28 02:12:57;;;;;;;7.60;5.65;;;;;;;15.62;84.81;100963.88;4927939;28;20075;-70
2022/06/28 02:15:24;;;;;;;7.25;6.45;;;;;;;15.56;85.50;100977.59;4931159;28;20055;-71
2022/06/28 02:17:51;;;;;;;8.57;6.13;;;;;;;15.49;86.10;100962.84;4924067;29;20047;-71
2022/06/28 02:20:17;;;;;;;7.20;6.03;;;;;;;15.52;86.70;100967.16;4929155;28;20111;-71
2022/06/28 02:22:44;;;;;;;6.72;5.63;;;;;;;15.45;86.38;100943.47;4933080;28;20051;-71
2022/06/28 02:25:10;;;;;;;8.02;6.47;;;;;;;15.64;86.46;100978.00;4921739;29;20086;-70
2022/06/28 02:27:38;;;;;;;7.03;6.40;;;;;;;15.65;85.81;100973.53;4925247;28;20547;-70
2022/06/28 02:30:05;;;;;;;10.20;6.30;;;;;;;15.68;85.93;100979.53;4932611;28;20074;-71
2022/06/28 02:32:32;;;;;;;8.00;7.20;;;;;;;15.68;85.78;100978.69;4924324;28;20051;-71
2022/06/28 02:40:29;;;;;;;9.70;8.05;;;;;;;15.59;87.24;100990.75;4924139;28;20058;-71
2022/06/28 02:43:00;;;;;;;11.38;8.32;;;;;;;15.54;86.88;100984.81;4926790;29;20051;-71
2022/06/28 02:45:29;;;;;;;10.05;8.80;;;;;;;15.48;87.48;100995.81;4933574;28;20110;-71
2022/06/28 02:47:56;;;;;;;8.40;7.25;;;;;;;15.43;88.13;100995.22;4926049;28;20039;-71
2022/06/28 02:50:24;;;;;;;11.18;8.23;;;;;;;15.42;88.19;100997.03;4934506;28;20059;-71
2022/06/28 02:52:51;;;;;;;10.55;7.78;;;;;;;15.42;88.47;101001.53;4927819;28;20505;-71
2022/06/28 02:55:18;;;;;;;9.50;8.02;;;;;;;15.43;88.65;101004.09;4919832;29;20099;-71
2022/06/28 02:57:47;;;;;;;10.13;7.13;;;;;;;15.45;88.17;100998.66;4923053;28;20048;-71
2022/06/28 03:00:16;;;;;;;9.47;7.77;;;;;;;15.33;88.62;100972.69;4927425;28;20062;-71
2022/06/28 03:02:45;;;;;;;12.38;8.00;;;;;;;15.44;87.89;100983.59;4927397;28;20508;-71
2022/06/28 03:05:14;;;;;;;10.48;7.72;;;;;;;15.57;87.86;101005.16;4931728;28;20130;-71
2022/06/28 03:07:42;;;;;;;9.13;6.95;;;;;;;15.43;87.66;100985.41;4932558;28;20154;-71
2022/06/28 03:10:10;;;;;;;9.00;7.85;;;;;;;15.38;88.63;101002.66;4913459;29;20051;-71
2022/06/28 03:12:37;;;;;;;9.88;8.38;;;;;;;15.09;89.50;100978.50;4925082;28;20047;-71
2022/06/28 03:15:05;;;;;;;9.52;7.68;;;;;;;15.11;90.34;100991.72;4935690;28;20063;-71
2022/06/28 03:17:32;;;;;;;7.78;7.00;;;;;;;15.12;90.94;101004.09;4927244;28;20074;-71
2022/06/28 03:19:59;;;;;;;12.15;8.43;;;;;;;15.07;91.32;101008.84;4932834;28;20146;-70
2022/06/28 03:22:26;;;;;;;9.30;7.97;;;;;;;14.91;91.77;100989.31;4931679;28;20094;-69
2022/06/28 03:24:52;;;;;;;12.48;8.73;;;;;;;14.87;92.44;100999.28;4923483;28;25175;-71
2022/06/28 03:27:19;;;;;;;10.73;8.32;;;;;;;14.97;92.37;101005.81;4922955;29;20142;-70
2022/06/28 03:29:46;;;;;;;9.77;7.40;;;;;;;14.99;92.45;101017.28;4926621;29;20052;-70
2022/06/28 03:32:13;;;;;;;9.60;7.60;;;;;;;15.07;92.39;101020.38;4917389;28;20052;-70
2022/06/28 03:34:39;;;;;;;11.15;8.25;;;;;;;15.04;91.68;101022.34;4932231;28;20047;-70
2022/06/28 03:37:06;;;;;;;7.93;7.13;;;;;;;14.98;91.93;101023.53;4919836;28;20118;-72
2022/06/28 03:39:33;;;;;;;9.20;7.50;;;;;;;15.02;92.37;101030.44;4921107;28;20143;-72
2022/06/28 03:41:59;;;;;;;9.07;7.78;;;;;;;15.08;91.84;101024.78;4922224;29;20119;-71
2022/06/28 03:44:26;;;;;;;10.07;7.55;;;;;;;15.14;91.41;101034.22;4935477;28;20051;-72
2022/06/28 03:46:53;;;;;;;8.63;7.43;;;;;;;15.11;91.75;101038.91;4928226;28;20074;-70
2022/06/28 03:49:19;;;;;;;11.98;8.13;;;;;;;15.01;92.14;101041.19;4938514;28;20052;-70
2022/06/28 03:51:46;;;;;;;9.38;7.63;;;;;;;14.86;92.42;101023.38;4925191;28;20131;-70
2022/06/28 03:54:12;;;;;;;9.63;8.18;;;;;;;15.00;92.91;101037.66;4919777;28;20059;-70
2022/06/28 03:56:39;;;;;;;10.50;8.20;;;;;;;15.06;92.42;101041.81;4926669;29;20063;-71
2022/06/28 03:59:06;;;;;;;9.20;8.25;;;;;;;15.16;91.92;101048.34;4929507;29;20082;-69
2022/06/28 04:01:32;;;;;;;8.50;7.32;;;;;;;15.20;90.94;101054.38;4927611;28;20102;-70
2022/06/28 04:03:59;;;;;;;10.35;8.20;;;;;;;15.17;90.66;101049.22;4933397;28;20059;-72
2022/06/28 04:06:27;;;;;;;10.18;7.57;;;;;;;15.19;90.99;101052.66;4922890;28;20055;-71
2022/06/28 04:08:53;;;;;;;9.15;7.75;;;;;;;15.05;91.20;101032.94;4923214;28;20574;-71
2022/06/28 04:11:20;;;;;;;8.52;7.35;;;;;;;15.15;91.35;101054.63;4923237;28;20067;-71
2022/06/28 04:13:51;;;;;;;9.95;8.00;;;;;;;15.10;91.60;101054.03;4932727;28;20048;-71
2022/06/28 04:16:20;;;;;;;11.50;8.27;;;;;;;15.03;91.87;101052.63;4925044;28;20118;-70
2022/06/28 04:18:47;;;;;;;10.07;8.50;;;;;;;15.01;92.35;101062.53;4932229;28;20043;-72
2022/06/28 04:21:16;;;;;;;11.13;8.52;;;;;;;14.91;92.96;101048.84;4929197;28;20101;-72
2022/06/28 04:23:43;;;;;;;11.50;7.93;;;;;;;14.94;93.50;101061.16;4926632;28;20051;-72
2022/06/28 04:26:10;;;;;;;15.40;7.90;;;;;;;14.85;94.05;101038.50;4921005;29;20810;-71
2022/06/28 04:28:36;;;;;;;8.88;7.97;;;;;;;15.07;93.35;101057.72;4931049;28;20067;-71
2022/06/28 04:31:04;;;;;;;11.43;8.35;;;;;;;15.00;92.59;101047.47;4927786;28;20134;-71
2022/06/28 04:33:31;;;;;;;11.63;7.60;;;;;;;15.17;93.04;101059.88;4934280;28;20087;-70
2022/06/28 04:35:57;;;;;;;11.07;8.38;;;;;;;15.22;92.03;101060.50;4928942;28;20071;-71
2022/06/28 04:38:24;;;;;;;8.35;7.10;;;;;;;15.21;91.73;101064.09;4918609;28;20055;-71
2022/06/28 04:40:51;;;;;;;11.70;7.85;;;;;;;15.20;91.84;101057.03;4924108;28;20051;-71
2022/06/28 04:43:17;;;;;;;9.20;7.95;;;;;;;15.23;92.21;101064.88;4933994;28;20043;-73
2022/06/28 04:45:44;;;;;;;8.52;7.70;;;;;;;15.23;91.66;101043.53;4932732;28;20059;-71
2022/06/28 04:48:11;;;;;;;8.73;7.68;;;;;;;15.30;90.98;101036.91;4927061;28;20063;-71
2022/06/28 04:50:37;;;;;;;9.60;8.00;;;;;;;15.42;90.68;101045.06;4925390;28;20126;-70
2022/06/28 04:53:04;;;;;;;10.02;7.88;;;;;;;15.57;89.76;101056.75;4922595;28;20051;-71
2022/06/28 04:55:31;;;;;;;12.10;7.97;;;;;;;15.59;89.33;101065.50;4928432;28;20052;-73
2022/06/28 04:57:58;;;;;;;9.80;7.90;;;;;;;15.54;89.21;101054.22;4928171;28;20095;-71
2022/06/28 05:00:26;;;;;;;9.55;7.35;;;;;;;15.66;89.34;101052.66;4930085;28;20043;-71
2022/06/28 05:03:13;;;;;;;9.23;6.90;;;;;;;15.75;88.78;101052.97;4934938;28;20124;-71
2022/06/28 05:05:40;;;;;;;12.02;7.28;;;;;;;15.83;87.85;101063.25;4926005;29;20063;-70
2022/06/28 05:08:07;;;;;;;8.10;7.07;;;;;;;15.88;88.06;101058.50;4919137;28;20075;-72
2022/06/28 05:10:33;;;;;;;8.40;7.00;;;;;;;15.94;87.30;101057.25;4923725;28;20047;-72
2022/06/28 05:13:00;;;;;;;8.25;7.32;;;;;;;16.03;86.68;101056.72;4916034;29;20057;-71
2022/06/28 05:15:27;;;;;;;12.23;7.70;;;;;;;16.10;85.95;101055.41;4922623;28;20072;-73
2022/06/28 05:17:54;;;;;;;8.55;6.18;;;;;;;16.18;85.56;101050.47;4930192;28;20056;-73
2022/06/28 05:20:20;;;;;;;8.20;6.47;;;;;;;16.30;84.99;101060.44;4926181;28;20060;-71
2022/06/28 05:22:47;;;;;;;10.85;7.90;;;;;;;16.29;84.28;101056.03;4920076;29;20047;-72
2022/06/28 05:25:14;;;;;;;10.98;7.20;;;;;;;16.31;84.36;101058.63;4924965;28;20064;-72
2022/06/28 05:27:40;;;;;;;11.85;7.78;;;;;;;16.29;84.73;101042.66;4928598;28;20052;-71
2022/06/28 05:30:08;;;;;;;9.57;8.18;;;;;;;16.32;83.94;101045.16;4933719;28;20086;-72
2022/06/28 05:32:34;;;;;;;10.70;8.40;;;;;;;16.38;84.20;101047.44;4933729;28;20509;-70
2022/06/28 05:35:02;;;;;;;9.48;8.40;;;;;;;16.36;84.13;101052.06;4931980;28;20163;-71
2022/06/28 05:37:28;;;;;;;10.68;7.85;;;;;;;16.39;84.74;101045.63;4929229;28;20063;-71
2022/06/28 05:39:55;;;;;;;9.75;7.78;;;;;;;16.29;84.85;101029.31;4923941;29;20106;-70
2022/06/28 05:42:22;;;;;;;13.30;8.82;;;;;;;16.36;85.00;101038.69;4922202;28;20087;-71
2022/06/28 05:44:48;;;;;;;10.25;9.02;;;;;;;16.35;85.46;101041.44;4928087;28;20048;-70
2022/06/28 05:47:15;;;;;;;12.32;8.88;;;;;;;16.27;85.40;101028.53;4928622;28;20055;-71
2022/06/28 05:49:42;;;;;;;12.35;9.30;;;;;;;16.42;84.62;101043.63;4934350;28;20119;-72
2022/06/28 05:52:09;;;;;;;10.40;8.75;;;;;;;16.51;84.42;101046.72;4917351;28;20504;-71
2022/06/28 05:54:38;;;;;;;14.93;12.65;;;;;;;16.57;83.62;101047.19;4919682;29;20516;-72
2022/06/28 05:57:05;;;;;;;11.02;8.98;;;;;;;16.73;83.15;101050.66;4918318;28;20060;-72
2022/06/28 05:59:32;;;;;;;11.00;9.25;;;;;;;16.88;81.28;101056.00;4931643;28;20098;-71
2022/06/28 06:01:59;;;;;;;11.60;9.15;;;;;;;17.00;80.59;101044.56;4920986;28;20075;-71
2022/06/28 06:04:26;;;;;;;11.15;9.02;;;;;;;17.11;80.62;101042.91;4920482;28;20111;-70
2022/06/28 06:06:54;;;;;;;11.98;8.52;;;;;;;17.30;79.80;101052.44;4920976;28;20405;-71
2022/06/28 06:09:21;;;;;;;11.77;9.70;;;;;;;17.45;77.79;101051.44;4919268;28;20166;-72
2022/06/28 06:11:47;;;;;;;10.25;8.18;;;;;;;17.62;77.48;101048.53;4926451;29;20046;-71
2022/06/28 06:14:21;;;;;;;11.20;10.00;;;;;;;17.74;75.00;101047.75;4932691;28;20517;-71
2022/06/28 06:16:50;;;;;;;10.60;8.50;;;;;;;17.89;74.81;101051.22;4923075;28;20182;-71
2022/06/28 06:19:17;;;;;;;10.68;8.10;;;;;;;18.17;72.92;101051.06;4931211;28;20086;-71
2022/06/28 06:21:45;;;;;;;9.07;7.78;;;;;;;18.59;71.63;101065.19;4922578;28;20072;-71
2022/06/28 06:24:12;;;;;;;11.05;7.70;;;;;;;19.08;69.64;101050.97;4920702;28;20048;-70
2022/06/28 06:26:38;;;;;;;10.43;7.22;;;;;;;19.42;66.66;101052.94;4920750;28;20091;-71
2022/06/28 06:29:05;;;;;;;7.75;6.70;;;;;;;19.67;66.27;101054.72;4934761;28;20130;-71
2022/06/28 06:31:32;;;;;;;7.90;6.65;;;;;;;19.99;62.93;101028.06;4921164;28;20134;-71
2022/06/28 06:33:59;;;;;;;8.95;6.05;;;;;;;20.52;62.88;101045.50;4922671;28;20056;-71
2022/06/28 06:36:25;;;;;;;9.18;6.95;;;;;;;20.76;61.42;101047.25;4916706;29;20060;-71
2022/06/28 06:38:53;;;;;;;7.50;5.75;;;;;;;21.18;58.01;101059.94;4931219;28;20102;-70
2022/06/28 06:41:19;;;;;;;5.75;3.38;;;;;;;21.50;52.68;101056.50;4926440;28;20143;-70
2022/06/28 06:43:46;;;;;;;3.40;2.60;;;;;;;21.82;50.80;101060.09;4919720;28;20051;-71
2022/06/28 06:46:13;;;;;;;5.65;3.80;;;;;;;22.04;50.31;101041.13;4921085;28;20059;-70
2022/06/28 06:48:48;;;;;;;3.88;3.45;;;;;;;22.23;50.58;101048.53;4920261;28;20044;-71
2022/06/28 06:51:14;;;;;;;5.50;3.78;;;;;;;22.30;49.62;101059.66;4925629;28;20433;-73
2022/06/28 06:53:41;;;;;;;4.05;3.10;;;;;;;22.15;48.44;101048.34;4920350;28;20071;-75
2022/06/28 06:56:08;;;;;;;4.18;3.30;;;;;;;22.32;49.45;101060.38;4917137;29;20110;-79
2022/06/28 06:58:34;;;;;;;2.85;2.08;;;;;;;22.59;45.76;101054.44;4930434;28;20099;-77
2022/06/28 07:01:01;;;;;;;3.67;2.53;;;;;;;22.58;46.62;101032.00;4926476;28;20426;-78
2022/06/28 07:03:48;;;;;;;4.07;2.33;;;;;;;22.91;45.55;101032.75;4927895;28;20047;-75
2022/06/28 07:06:15;;;;;;;2.20;1.80;;;;;;;23.31;45.08;101044.41;4923295;28;20059;-76
2022/06/28 07:08:42;;;;;;;3.45;3.05;;;;;;;23.45;43.98;101051.28;4922792;28;20142;-75
2022/06/28 07:11:09;;;;;;;2.72;2.03;;;;;;;23.43;45.19;101046.03;4926684;29;20051;-75
2022/06/28 07:13:36;;;;;;;7.40;2.85;;;;;;;23.69;44.00;101048.22;4932507;28;20048;-79
2022/06/28 07:16:03;;;;;;;2.97;2.40;;;;;;;23.56;43.45;101029.56;4931064;28;20117;-74
2022/06/28 07:18:30;;;;;;;4.50;2.42;;;;;;;23.49;45.41;101041.03;4926681;28;20039;-78
2022/06/28 07:20:57;;;;;;;3.08;2.38;;;;;;;23.34;44.59;101041.44;4926574;29;20051;-74
2022/06/28 07:23:24;;;;;;;2.75;2.35;;;;;;;22.86;46.07;101040.41;4934922;28;20151;-74
2022/06/28 07:25:55;;;;;;;2.90;2.10;;;;;;;22.73;45.98;101037.91;4939102;28;20051;-74
2022/06/28 07:28:22;;;;;;;3.65;2.25;;;;;;;22.65;44.74;101030.47;4937693;28;20059;-74
2022/06/28 07:30:49;;;;;;;2.88;1.80;;;;;;;23.01;44.15;101037.19;4933157;28;20102;-73
2022/06/28 07:33:16;;;;;;;3.53;1.40;;;;;;;23.04;43.01;101031.53;4935312;28;20059;-71
2022/06/28 07:35:44;;;;;;;2.03;1.42;;;;;;;23.01;42.08;101031.78;4933055;28;20059;-74
2022/06/28 07:38:12;;;;;;;2.35;1.30;;;;;;;22.88;43.21;101014.13;4929822;28;20134;-77
2022/06/28 07:40:40;;;;;;;2.65;1.40;;;;;;;23.12;42.33;101036.25;4929746;28;20047;-75
2022/06/28 07:43:06;;;;;;;3.00;1.48;;;;;;;22.99;43.15;101014.00;4927429;28;20087;-71
2022/06/28 07:45:36;;;;;;;1.98;1.30;;;;;;;23.09;43.06;101034.69;4927846;28;20563;-73
2022/06/28 07:48:04;;;;;;;3.33;1.70;;;;;;;23.00;43.69;101032.78;4931597;28;20051;-70
2022/06/28 07:53:19;;;;;;;2.92;1.60;;;;;;;23.18;42.64;101040.25;4927170;28;20189;-71
2022/06/28 07:55:46;;;;;;;2.92;1.50;;;;;;;23.49;42.45;101036.47;4925248;28;20104;-70
2022/06/28 07:58:12;;;;;;;1.02;0.93;;;;;;;23.75;42.24;101034.16;4926361;28;20381;-71
2022/06/28 08:00:39;;;;;;;3.72;1.45;;;;;;;23.82;41.32;101024.44;4929380;29;20066;-70
2022/06/28 08:03:06;;;;;;;2.00;1.23;;;;;;;23.76;41.37;101014.22;4928792;28;20216;-71
2022/06/28 08:05:32;;;;;;;2.50;1.60;;;;;;;23.93;41.42;101035.13;4926933;28;20484;-71
2022/06/28 08:07:59;;;;;;;1.88;1.13;;;;;;;23.89;39.91;101036.44;4928401;28;20634;-71
2022/06/28 08:10:26;;;;;;;1.13;1.02;;;;;;;23.81;39.42;101038.13;4927782;28;20142;-71
2022/06/28 08:12:52;;;;;;;1.45;1.05;;;;;;;23.89;39.61;101041.84;4930610;28;20425;-71
2022/06/28 08:15:19;;;;;;;2.90;1.10;;;;;;;24.07;40.08;101034.72;4923821;28;20102;-71
2022/06/28 08:17:46;;;;;;;1.63;1.15;;;;;;;23.35;40.75;101026.06;4925906;28;20433;-71
2022/06/28 08:20:13;;;;;;;3.13;1.55;;;;;;;22.81;42.18;101027.31;4919176;29;20405;-71
2022/06/28 08:22:39;;;;;;;2.78;1.40;;;;;;;22.82;42.91;101018.25;4924046;28;21045;-71
2022/06/28 08:25:07;;;;;;;2.17;1.02;;;;;;;22.85;41.95;101014.38;4923076;28;20494;-71
2022/06/28 08:27:34;;;;;;;4.25;1.00;;;;;;;23.07;40.82;101019.59;4929774;28;20079;-71
2022/06/28 08:30:01;;;;;;;3.28;0.98;;;;;;;23.03;39.62;101005.50;4932036;28;20067;-70
2022/06/28 08:32:28;;;;;;;1.00;0.80;;;;;;;23.17;39.61;100990.75;4924157;28;20052;-71
2022/06/28 08:34:54;;;;;;;2.08;0.90;;;;;;;23.72;37.00;101001.97;4924319;28;20062;-70
2022/06/28 08:37:21;;;;;;;1.90;0.82;;;;;;;24.04;37.07;101002.53;4927008;28;20138;-71
2022/06/28 08:39:48;;;;;;;1.08;0.70;;;;;;;24.33;34.51;101004.38;4925884;28;20052;-72
2022/06/28 08:42:25;;;;;;;2.08;1.05;;;;;;;24.59;34.50;100996.44;4917439;28;20517;-72
2022/06/28 08:44:52;;;;;;;1.90;0.95;;;;;;;24.63;35.82;100989.75;4917078;28;20091;-71
2022/06/28 08:47:21;;;;;;;1.67;1.00;;;;;;;24.46;36.42;100988.66;4921606;28;20071;-71
2022/06/28 08:49:57;;;;;;;2.33;0.85;;;;;;;24.33;37.13;100990.84;4927583;28;20135;-71
2022/06/28 08:52:24;;;;;;;1.40;0.60;;;;;;;24.33;35.77;101007.06;4925431;28;20461;-71
2022/06/28 08:54:53;;;;;;;1.25;0.77;;;;;;;24.37;34.36;100994.97;4926561;29;20052;-72
2022/06/28 08:57:21;;;;;;;1.30;0.63;;;;;;;24.26;34.94;100997.81;4923997;28;20577;-71
2022/06/28 08:59:48;;;;;;;2.28;0.70;;;;;;;23.84;34.17;100971.06;4922868;28;20140;-71
2022/06/28 09:02:16;;;;;;;1.05;0.60;;;;;;;23.89;35.19;100976.91;4939751;28;20737;-70
2022/06/28 09:04:53;;;;;;;2.85;0.60;;;;;;;23.99;34.42;100977.75;4927852;28;20407;-71
2022/06/28 09:07:21;;;;;;;1.90;0.50;;;;;;;24.04;33.11;100971.91;4929490;29;20543;-71
2022/06/28 09:09:48;;;;;;;1.02;0.70;;;;;;;24.05;32.81;100979.88;4929551;28;20130;-71
2022/06/28 09:12:15;;;;;;;1.30;0.70;;;;;;;24.21;33.73;100973.88;4924731;28;20113;-71
2022/06/28 09:14:41;;;;;;;2.35;0.68;;;;;;;24.48;32.97;100973.97;4927235;28;20087;-71
2022/06/28 09:17:19;;;;;;;0.95;0.52;;;;;;;25.02;32.94;100969.63;4925456;28;20052;-71
2022/06/28 09:19:47;;;;;;;2.03;0.75;;;;;;;25.13;32.44;100957.72;4927681;29;20058;-71
2022/06/28 09:22:34;;;;;;;2.60;0.80;;;;;;;25.22;31.99;100967.66;4929888;28;20110;-70
2022/06/28 09:25:08;;;;;;;1.40;0.70;;;;;;;24.77;33.71;100960.31;4927315;28;20057;-71
2022/06/28 09:27:39;;;;;;;0.80;0.52;;;;;;;24.21;33.24;100951.38;4926539;28;20052;-71
2022/06/28 09:30:09;;;;;;;2.22;0.80;;;;;;;23.65;35.06;100953.00;4927517;28;20052;-71
2022/06/28 09:32:37;;;;;;;1.25;0.82;;;;;;;23.24;35.17;100935.19;4924774;29;20474;-71
2022/06/28 09:35:11;;;;;;;4.50;0.90;;;;;;;23.13;35.69;100946.13;4918506;28;20922;-71
2022/06/28 09:37:50;;;;;;;2.35;0.90;;;;;;;23.07;35.47;100936.72;4925246;28;20071;-71
2022/06/28 09:40:31;;;;;;;2.80;0.70;;;;;;;23.16;35.93;100940.41;4924266;28;20039;-72
2022/06/28 09:43:12;;;;;;;0.90;0.70;;;;;;;23.15;36.82;100937.84;4930752;28;20154;-71
2022/06/28 09:45:43;;;;;;;1.58;0.70;;;;;;;23.24;35.47;100939.72;4924186;28;20052;-72
2022/06/28 09:48:18;;;;;;;1.10;0.70;;;;;;;23.08;35.25;100933.03;4926750;28;20500;-72
2022/06/28 09:50:47;;;;;;;1.13;0.70;;;;;;;23.09;35.55;100934.72;4924874;28;20147;-71
2022/06/28 09:53:15;;;;;;;1.63;0.77;;;;;;;23.25;34.95;100936.88;4926826;28;20055;-71
2022/06/28 09:55:43;;;;;;;1.98;0.70;;;;;;;23.29;34.82;100927.50;4922855;29;20182;-71
2022/06/28 09:58:10;;;;;;;1.50;0.75;;;;;;;23.29;34.49;100924.81;4922611;28;20070;-77
2022/06/28 10:00:41;;;;;;;1.38;0.70;;;;;;;23.30;34.64;100923.78;4929613;28;20098;-70
2022/06/28 10:03:08;;;;;;;1.23;0.70;;;;;;;23.28;34.43;100909.59;4930017;29;20090;-72
2022/06/28 10:05:35;;;;;;;2.22;0.70;;;;;;;23.26;34.39;100902.63;4915953;29;20058;-72
2022/06/28 10:08:03;;;;;;;2.15;0.60;;;;;;;23.23;32.88;100895.63;4923159;28;20592;-72
2022/06/28 10:10:30;;;;;;;2.58;0.50;;;;;;;23.19;33.83;100901.47;4918673;28;20074;-70
2022/06/28 10:16:00;;;;;;;2.45;0.90;;;;;;;23.24;35.64;100882.97;4918415;28;20087;-72
2022/06/28 10:18:28;;;;;;;1.55;0.50;;;;;;;23.34;34.35;100894.63;4919599;28;20123;-72
2022/06/28 10:20:55;;;;;;;1.63;0.50;;;;;;;23.35;34.07;100894.50;4928812;28;20048;-70
2022/06/28 10:23:36;;;;;;;0.98;0.52;;;;;;;23.48;33.90;100891.50;4925243;28;20048;-72
2022/06/28 10:26:19;;;;;;;2.20;0.63;;;;;;;23.68;33.73;100901.34;4926634;28;20058;-72
2022/06/28 10:28:59;;;;;;;2.40;0.70;;;;;;;23.75;34.07;100894.38;4922978;29;20067;-71
2022/06/28 10:31:25;;;;;;;1.03;0.60;;;;;;;23.71;34.53;100897.50;4919179;28;20164;-70
2022/06/28 10:34:22;;;;;;;1.98;0.80;;;;;;;23.69;35.65;100873.31;4921370;28;20060;-71
2022/06/28 10:36:57;;;;;;;2.83;0.50;;;;;;;23.98;34.76;100907.56;4919208;28;20051;-71
2022/06/28 10:39:31;;;;;;;1.25;0.63;;;;;;;24.12;33.39;100894.41;4920080;28;20062;-71
2022/06/28 10:42:00;;;;;;;1.30;0.50;;;;;;;24.07;32.69;100894.03;4928996;29;20078;-71
2022/06/28 10:44:42;;;;;;;1.00;0.70;;;;;;;24.04;31.99;100893.47;4922864;28;20062;-70
2022/06/28 10:47:09;;;;;;;2.47;0.65;;;;;;;24.07;32.67;100894.03;4924292;28;20571;-71
2022/06/28 10:49:44;;;;;;;1.95;0.90;;;;;;;24.01;32.78;100900.00;4901595;28;20083;-70
2022/06/28 10:52:37;;;;;;;1.13;0.65;;;;;;;23.87;32.58;100902.31;4910797;28;20062;-72
2022/06/28 10:55:04;;;;;;;1.77;0.68;;;;;;;23.69;32.80;100894.94;4919068;28;20631;-71
2022/06/28 10:57:30;;;;;;;1.58;0.60;;;;;;;23.71;32.43;100886.69;4922156;28;20376;-73
2022/06/28 11:00:05;;;;;;;1.38;0.40;;;;;;;23.63;31.83;100868.47;4919635;28;20080;-72
2022/06/28 11:02:46;;;;;;;0.95;0.70;;;;;;;23.71;32.91;100879.44;4916746;29;20059;-72
2022/06/28 11:05:12;;;;;;;;;;;;;;;23.84;33.13;100881.81;4919269;28;20110;-72
2022/06/28 11:07:40;;;;;;;1.05;0.50;;;;;;;24.02;30.74;100863.84;4918684;29;19931;-71
2022/06/28 11:10:11;;;;;;;1.80;0.57;;;;;;;24.20;30.10;100855.81;4920291;29;20055;-73
2022/06/28 11:12:41;;;;;;;;;;;;;;;24.29;31.04;100859.50;4921240;29;20051;-73
2022/06/28 11:15:26;;;;;;;1.23;0.77;;;;;;;24.31;31.03;100852.09;4918912;28;19958;-73
2022/06/28 11:17:53;;;;;;;3.20;0.60;;;;;;;24.37;31.85;100846.94;4916744;28;20055;-71
2022/06/28 11:20:28;;;;;;;1.85;0.70;;;;;;;24.42;31.76;100836.50;4918448;28;20190;-73
2022/06/28 11:22:54;;;;;;;2.03;0.60;;;;;;;24.28;31.10;100842.41;4918588;29;20068;-71
2022/06/28 11:25:23;;;;;;;1.95;0.70;;;;;;;24.33;31.59;100833.84;4920503;28;20075;-71
2022/06/28 11:27:56;;;;;;;1.45;0.50;;;;;;;24.37;31.55;100835.25;4915109;28;20090;-71
2022/06/28 11:30:29;;;;;;;1.48;0.68;;;;;;;24.47;31.39;100819.81;4920092;28;20131;-72
2022/06/28 11:32:58;;;;;;;3.05;0.52;;;;;;;24.52;32.68;100809.38;4913168;28;20480;-74
2022/06/28 11:35:27;;;;;;;1.45;0.60;;;;;;;24.65;33.00;100820.69;4915594;29;20155;-73
2022/06/28 11:38:02;;;;;;;1.25;0.60;;;;;;;24.77;32.01;100805.91;4915850;28;20480;-71
2022/06/28 11:40:38;;;;;;;1.45;0.70;;;;;;;24.99;31.49;100818.19;4918038;29;20103;-72
2022/06/28 11:43:10;;;;;;;2.40;0.77;;;;;;;24.91;29.39;100800.97;4916700;29;20059;-72
2022/06/28 11:45:41;;;;;;;3.50;0.60;;;;;;;24.98;29.98;100807.53;4915444;28;20063;-72